sensor_id;sensor_type;location;lat;lon;timestamp;P1;durP1;ratioP1;P2;durP2;ratioP2
75837;SDS011;64480;52.040;113.502;2023-08-06T00:02:39;6.57;;;3.90;;
75837;SDS011;64480;52.040;113.502;2023-08-06T00:05:48;8.10;;;3.80;;
75837;SDS011;64480;52.040;113.502;2023-08-06T00:08:51;6.95;;;3.65;;
75837;SDS011;64480;52.040;113.502;2023-08-06T00:11:56;7.95;;;4.05;;
75837;SDS011;64480;52.040;113.502;2023-08-06T00:15:00;5.63;;;3.42;;
75837;SDS011;64480;52.040;113.502;2023-08-06T00:18:05;4.57;;;2.97;;
75837;SDS011;64480;52.040;113.502;2023-08-06T00:21:13;5.90;;;3.38;;
75837;SDS011;64480;52.040;113.502;2023-08-06T00:24:17;4.28;;;2.80;;
75837;SDS011;64480;52.040;113.502;2023-08-06T00:27:47;5.55;;;3.20;;
75837;SDS011;64480;52.040;113.502;2023-08-06T00:30:54;5.35;;;3.60;;
75837;SDS011;64480;52.040;113.502;2023-08-06T00:34:13;8.13;;;3.55;;
75837;SDS011;64480;52.040;113.502;2023-08-06T00:37:22;5.20;;;3.65;;
75837;SDS011;64480;52.040;113.502;2023-08-06T00:40:45;6.22;;;3.42;;
75837;SDS011;64480;52.040;113.502;2023-08-06T00:43:54;5.63;;;3.08;;
75837;SDS011;64480;52.040;113.502;2023-08-06T00:47:00;6.32;;;3.22;;
75837;SDS011;64480;52.040;113.502;2023-08-06T00:50:06;5.63;;;3.05;;
75837;SDS011;64480;52.040;113.502;2023-08-06T00:53:25;6.35;;;3.22;;
75837;SDS011;64480;52.040;113.502;2023-08-06T00:56:39;10.32;;;4.15;;
75837;SDS011;64480;52.040;113.502;2023-08-06T00:59:45;7.00;;;3.67;;
75837;SDS011;64480;52.040;113.502;2023-08-06T01:02:55;6.15;;;3.78;;
75837;SDS011;64480;52.040;113.502;2023-08-06T01:06:12;6.80;;;3.63;;
75837;SDS011;64480;52.040;113.502;2023-08-06T01:09:31;5.95;;;3.40;;
75837;SDS011;64480;52.040;113.502;2023-08-06T01:13:18;5.93;;;3.45;;
75837;SDS011;64480;52.040;113.502;2023-08-06T01:16:46;8.57;;;3.88;;
75837;SDS011;64480;52.040;113.502;2023-08-06T01:19:54;5.38;;;3.58;;
75837;SDS011;64480;52.040;113.502;2023-08-06T01:23:28;6.32;;;3.58;;
75837;SDS011;64480;52.040;113.502;2023-08-06T01:26:42;6.28;;;3.33;;
75837;SDS011;64480;52.040;113.502;2023-08-06T01:29:57;8.05;;;3.58;;
75837;SDS011;64480;52.040;113.502;2023-08-06T01:33:43;7.35;;;4.00;;
75837;SDS011;64480;52.040;113.502;2023-08-06T01:36:51;5.60;;;3.20;;
75837;SDS011;64480;52.040;113.502;2023-08-06T01:40:09;5.60;;;3.40;;
75837;SDS011;64480;52.040;113.502;2023-08-06T01:43:41;7.90;;;3.70;;
75837;SDS011;64480;52.040;113.502;2023-08-06T01:46:45;9.25;;;3.08;;
75837;SDS011;64480;52.040;113.502;2023-08-06T01:49:52;7.40;;;3.50;;
75837;SDS011;64480;52.040;113.502;2023-08-06T01:56:14;6.38;;;3.35;;
75837;SDS011;64480;52.040;113.502;2023-08-06T01:59:27;5.57;;;3.70;;
75837;SDS011;64480;52.040;113.502;2023-08-06T02:02:43;7.53;;;4.03;;
75837;SDS011;64480;52.040;113.502;2023-08-06T02:05:52;8.23;;;3.30;;
75837;SDS011;64480;52.040;113.502;2023-08-06T02:08:58;6.20;;;3.33;;
75837;SDS011;64480;52.040;113.502;2023-08-06T02:12:16;4.72;;;3.40;;
75837;SDS011;64480;52.040;113.502;2023-08-06T02:15:26;5.10;;;3.22;;
75837;SDS011;64480;52.040;113.502;2023-08-06T02:18:38;5.50;;;2.90;;
75837;SDS011;64480;52.040;113.502;2023-08-06T02:21:47;7.13;;;3.38;;
75837;SDS011;64480;52.040;113.502;2023-08-06T02:24:53;8.98;;;3.30;;
75837;SDS011;64480;52.040;113.502;2023-08-06T02:27:58;4.97;;;3.15;;
75837;SDS011;64480;52.040;113.502;2023-08-06T02:31:18;6.13;;;3.28;;
75837;SDS011;64480;52.040;113.502;2023-08-06T02:34:37;8.32;;;3.70;;
75837;SDS011;64480;52.040;113.502;2023-08-06T02:37:50;5.38;;;3.60;;
75837;SDS011;64480;52.040;113.502;2023-08-06T02:40:56;5.30;;;3.15;;
75837;SDS011;64480;52.040;113.502;2023-08-06T02:44:18;9.27;;;3.83;;
75837;SDS011;64480;52.040;113.502;2023-08-06T02:47:23;8.18;;;3.15;;
75837;SDS011;64480;52.040;113.502;2023-08-06T02:50:28;5.78;;;3.28;;
75837;SDS011;64480;52.040;113.502;2023-08-06T02:54:08;7.85;;;4.00;;
75837;SDS011;64480;52.040;113.502;2023-08-06T02:57:25;6.15;;;3.53;;
75837;SDS011;64480;52.040;113.502;2023-08-06T03:04:31;9.35;;;3.70;;
75837;SDS011;64480;52.040;113.502;2023-08-06T03:07:40;8.52;;;3.65;;
75837;SDS011;64480;52.040;113.502;2023-08-06T03:10:50;6.55;;;3.00;;
75837;SDS011;64480;52.040;113.502;2023-08-06T03:14:07;5.20;;;2.88;;
75837;SDS011;64480;52.040;113.502;2023-08-06T03:17:28;7.10;;;3.03;;
75837;SDS011;64480;52.040;113.502;2023-08-06T03:20:34;5.13;;;2.70;;
75837;SDS011;64480;52.040;113.502;2023-08-06T03:23:42;3.85;;;3.10;;
75837;SDS011;64480;52.040;113.502;2023-08-06T03:26:48;5.22;;;3.08;;
75837;SDS011;64480;52.040;113.502;2023-08-06T03:29:55;5.38;;;2.83;;
75837;SDS011;64480;52.040;113.502;2023-08-06T03:33:06;7.68;;;3.28;;
75837;SDS011;64480;52.040;113.502;2023-08-06T03:36:21;12.80;;;3.60;;
75837;SDS011;64480;52.040;113.502;2023-08-06T03:39:44;6.57;;;3.13;;
75837;SDS011;64480;52.040;113.502;2023-08-06T03:43:15;4.60;;;2.70;;
75837;SDS011;64480;52.040;113.502;2023-08-06T03:46:21;9.30;;;3.38;;
75837;SDS011;64480;52.040;113.502;2023-08-06T03:49:44;5.80;;;2.78;;
75837;SDS011;64480;52.040;113.502;2023-08-06T03:53:03;4.60;;;2.60;;
75837;SDS011;64480;52.040;113.502;2023-08-06T03:56:36;3.75;;;2.47;;
75837;SDS011;64480;52.040;113.502;2023-08-06T03:59:42;5.50;;;3.58;;
75837;SDS011;64480;52.040;113.502;2023-08-06T04:03:05;9.25;;;3.30;;
75837;SDS011;64480;52.040;113.502;2023-08-06T04:06:31;5.97;;;2.67;;
75837;SDS011;64480;52.040;113.502;2023-08-06T04:09:52;5.38;;;3.15;;
75837;SDS011;64480;52.040;113.502;2023-08-06T04:13:09;10.00;;;3.13;;
75837;SDS011;64480;52.040;113.502;2023-08-06T04:16:27;5.13;;;3.30;;
75837;SDS011;64480;52.040;113.502;2023-08-06T04:19:39;6.80;;;3.03;;
75837;SDS011;64480;52.040;113.502;2023-08-06T04:22:45;8.35;;;3.42;;
75837;SDS011;64480;52.040;113.502;2023-08-06T04:26:05;5.72;;;2.75;;
75837;SDS011;64480;52.040;113.502;2023-08-06T04:29:23;5.68;;;3.42;;
75837;SDS011;64480;52.040;113.502;2023-08-06T04:32:41;9.10;;;3.40;;
75837;SDS011;64480;52.040;113.502;2023-08-06T04:35:59;6.10;;;2.95;;
75837;SDS011;64480;52.040;113.502;2023-08-06T04:39:25;6.60;;;2.90;;
75837;SDS011;64480;52.040;113.502;2023-08-06T04:42:46;4.63;;;3.13;;
75837;SDS011;64480;52.040;113.502;2023-08-06T04:46:01;6.85;;;3.47;;
75837;SDS011;64480;52.040;113.502;2023-08-06T04:49:21;5.32;;;3.53;;
75837;SDS011;64480;52.040;113.502;2023-08-06T04:52:41;5.82;;;3.40;;
75837;SDS011;64480;52.040;113.502;2023-08-06T04:56:03;7.85;;;3.58;;
75837;SDS011;64480;52.040;113.502;2023-08-06T04:59:07;5.50;;;3.22;;
75837;SDS011;64480;52.040;113.502;2023-08-06T05:02:25;8.23;;;3.20;;
75837;SDS011;64480;52.040;113.502;2023-08-06T05:05:50;10.63;;;4.13;;
75837;SDS011;64480;52.040;113.502;2023-08-06T05:09:10;6.38;;;3.15;;
75837;SDS011;64480;52.040;113.502;2023-08-06T05:12:29;7.85;;;3.65;;
75837;SDS011;64480;52.040;113.502;2023-08-06T05:15:34;6.25;;;2.85;;
75837;SDS011;64480;52.040;113.502;2023-08-06T05:18:43;10.52;;;4.10;;
75837;SDS011;64480;52.040;113.502;2023-08-06T05:21:49;5.55;;;3.70;;
75837;SDS011;64480;52.040;113.502;2023-08-06T05:24:55;8.40;;;4.00;;
75837;SDS011;64480;52.040;113.502;2023-08-06T05:28:07;8.32;;;4.28;;
75837;SDS011;64480;52.040;113.502;2023-08-06T05:31:12;6.32;;;3.40;;
75837;SDS011;64480;52.040;113.502;2023-08-06T05:34:16;12.27;;;4.95;;
75837;SDS011;64480;52.040;113.502;2023-08-06T05:37:21;5.78;;;3.72;;
75837;SDS011;64480;52.040;113.502;2023-08-06T05:40:27;6.78;;;3.45;;
75837;SDS011;64480;52.040;113.502;2023-08-06T05:43:44;5.82;;;3.15;;
75837;SDS011;64480;52.040;113.502;2023-08-06T05:47:02;8.82;;;4.55;;
75837;SDS011;64480;52.040;113.502;2023-08-06T05:50:08;6.10;;;3.22;;
75837;SDS011;64480;52.040;113.502;2023-08-06T05:53:22;5.88;;;3.60;;
75837;SDS011;64480;52.040;113.502;2023-08-06T05:56:39;6.47;;;3.17;;
75837;SDS011;64480;52.040;113.502;2023-08-06T05:59:53;5.07;;;3.85;;
75837;SDS011;64480;52.040;113.502;2023-08-06T06:03:01;7.43;;;3.78;;
75837;SDS011;64480;52.040;113.502;2023-08-06T06:06:11;6.03;;;3.85;;
75837;SDS011;64480;52.040;113.502;2023-08-06T06:12:23;11.10;;;4.68;;
75837;SDS011;64480;52.040;113.502;2023-08-06T06:15:44;15.50;;;8.48;;
75837;SDS011;64480;52.040;113.502;2023-08-06T06:19:04;9.45;;;5.40;;
75837;SDS011;64480;52.040;113.502;2023-08-06T06:22:21;7.57;;;4.32;;
75837;SDS011;64480;52.040;113.502;2023-08-06T06:25:28;9.93;;;4.47;;
75837;SDS011;64480;52.040;113.502;2023-08-06T06:28:45;8.60;;;4.90;;
75837;SDS011;64480;52.040;113.502;2023-08-06T06:32:03;7.35;;;3.97;;
75837;SDS011;64480;52.040;113.502;2023-08-06T06:35:20;10.27;;;4.15;;
75837;SDS011;64480;52.040;113.502;2023-08-06T06:38:34;5.03;;;3.00;;
75837;SDS011;64480;52.040;113.502;2023-08-06T06:45:55;5.03;;;3.90;;
75837;SDS011;64480;52.040;113.502;2023-08-06T06:49:06;6.03;;;4.35;;
75837;SDS011;64480;52.040;113.502;2023-08-06T06:52:23;9.07;;;4.38;;
75837;SDS011;64480;52.040;113.502;2023-08-06T06:55:31;5.95;;;4.18;;
75837;SDS011;64480;52.040;113.502;2023-08-06T06:58:35;6.68;;;4.75;;
75837;SDS011;64480;52.040;113.502;2023-08-06T07:01:53;8.05;;;4.57;;
75837;SDS011;64480;52.040;113.502;2023-08-06T07:05:11;11.50;;;4.95;;
75837;SDS011;64480;52.040;113.502;2023-08-06T07:08:18;7.93;;;4.57;;
75837;SDS011;64480;52.040;113.502;2023-08-06T07:11:37;10.77;;;5.22;;
75837;SDS011;64480;52.040;113.502;2023-08-06T07:14:50;8.40;;;5.47;;
75837;SDS011;64480;52.040;113.502;2023-08-06T07:18:07;13.63;;;6.10;;
75837;SDS011;64480;52.040;113.502;2023-08-06T07:21:25;12.77;;;5.20;;
75837;SDS011;64480;52.040;113.502;2023-08-06T07:28:00;9.95;;;4.97;;
75837;SDS011;64480;52.040;113.502;2023-08-06T07:31:19;7.53;;;5.28;;
75837;SDS011;64480;52.040;113.502;2023-08-06T07:34:50;6.88;;;4.60;;
75837;SDS011;64480;52.040;113.502;2023-08-06T07:41:18;8.15;;;4.55;;
75837;SDS011;64480;52.040;113.502;2023-08-06T07:44:22;7.22;;;5.55;;
75837;SDS011;64480;52.040;113.502;2023-08-06T07:47:29;8.60;;;5.20;;
75837;SDS011;64480;52.040;113.502;2023-08-06T07:50:34;8.95;;;5.10;;
75837;SDS011;64480;52.040;113.502;2023-08-06T07:53:39;9.82;;;5.75;;
75837;SDS011;64480;52.040;113.502;2023-08-06T07:56:46;7.70;;;5.35;;
75837;SDS011;64480;52.040;113.502;2023-08-06T08:00:03;8.93;;;5.78;;
75837;SDS011;64480;52.040;113.502;2023-08-06T08:03:29;7.82;;;4.88;;
75837;SDS011;64480;52.040;113.502;2023-08-06T08:06:45;7.05;;;4.72;;
75837;SDS011;64480;52.040;113.502;2023-08-06T08:10:03;6.88;;;4.53;;
75837;SDS011;64480;52.040;113.502;2023-08-06T08:13:21;10.95;;;5.18;;
75837;SDS011;64480;52.040;113.502;2023-08-06T08:16:38;10.90;;;4.78;;
75837;SDS011;64480;52.040;113.502;2023-08-06T08:19:43;6.55;;;4.70;;
75837;SDS011;64480;52.040;113.502;2023-08-06T08:22:47;8.93;;;4.78;;
75837;SDS011;64480;52.040;113.502;2023-08-06T08:25:54;14.88;;;5.32;;
75837;SDS011;64480;52.040;113.502;2023-08-06T08:29:11;11.05;;;5.97;;
75837;SDS011;64480;52.040;113.502;2023-08-06T08:32:15;9.35;;;6.05;;
75837;SDS011;64480;52.040;113.502;2023-08-06T08:35:32;12.70;;;5.35;;
75837;SDS011;64480;52.040;113.502;2023-08-06T08:38:38;8.70;;;6.30;;
75837;SDS011;64480;52.040;113.502;2023-08-06T08:41:55;6.78;;;4.82;;
75837;SDS011;64480;52.040;113.502;2023-08-06T08:45:01;10.68;;;5.68;;
75837;SDS011;64480;52.040;113.502;2023-08-06T08:48:10;11.07;;;6.30;;
75837;SDS011;64480;52.040;113.502;2023-08-06T08:51:19;12.10;;;5.35;;
75837;SDS011;64480;52.040;113.502;2023-08-06T08:54:36;9.07;;;5.70;;
75837;SDS011;64480;52.040;113.502;2023-08-06T08:57:49;9.38;;;5.13;;
75837;SDS011;64480;52.040;113.502;2023-08-06T09:01:05;9.25;;;5.43;;
75837;SDS011;64480;52.040;113.502;2023-08-06T09:04:12;10.18;;;5.40;;
75837;SDS011;64480;52.040;113.502;2023-08-06T09:07:18;7.55;;;5.32;;
75837;SDS011;64480;52.040;113.502;2023-08-06T09:10:39;13.75;;;5.80;;
75837;SDS011;64480;52.040;113.502;2023-08-06T09:13:48;10.90;;;6.50;;
75837;SDS011;64480;52.040;113.502;2023-08-06T09:16:57;9.95;;;6.38;;
75837;SDS011;64480;52.040;113.502;2023-08-06T09:20:12;13.55;;;7.03;;
75837;SDS011;64480;52.040;113.502;2023-08-06T09:23:29;12.23;;;6.72;;
75837;SDS011;64480;52.040;113.502;2023-08-06T09:26:44;12.68;;;7.80;;
75837;SDS011;64480;52.040;113.502;2023-08-06T09:30:02;13.57;;;9.48;;
75837;SDS011;64480;52.040;113.502;2023-08-06T09:33:08;13.82;;;9.20;;
75837;SDS011;64480;52.040;113.502;2023-08-06T09:36:20;13.90;;;8.75;;
75837;SDS011;64480;52.040;113.502;2023-08-06T09:39:28;13.52;;;7.55;;
75837;SDS011;64480;52.040;113.502;2023-08-06T09:42:36;22.20;;;8.85;;
75837;SDS011;64480;52.040;113.502;2023-08-06T09:45:40;12.50;;;7.90;;
75837;SDS011;64480;52.040;113.502;2023-08-06T09:48:57;15.05;;;8.98;;
75837;SDS011;64480;52.040;113.502;2023-08-06T09:52:15;12.40;;;8.63;;
75837;SDS011;64480;52.040;113.502;2023-08-06T09:55:34;14.43;;;7.78;;
75837;SDS011;64480;52.040;113.502;2023-08-06T09:58:42;12.40;;;7.63;;
75837;SDS011;64480;52.040;113.502;2023-08-06T10:01:55;13.48;;;9.77;;
75837;SDS011;64480;52.040;113.502;2023-08-06T10:05:03;11.32;;;8.05;;
75837;SDS011;64480;52.040;113.502;2023-08-06T10:11:42;13.10;;;7.32;;
75837;SDS011;64480;52.040;113.502;2023-08-06T10:15:08;12.27;;;7.90;;
75837;SDS011;64480;52.040;113.502;2023-08-06T10:18:14;24.60;;;10.90;;
75837;SDS011;64480;52.040;113.502;2023-08-06T10:21:39;17.25;;;10.18;;
75837;SDS011;64480;52.040;113.502;2023-08-06T10:24:51;11.95;;;8.38;;
75837;SDS011;64480;52.040;113.502;2023-08-06T10:28:10;14.40;;;9.93;;
75837;SDS011;64480;52.040;113.502;2023-08-06T10:31:17;16.85;;;9.25;;
75837;SDS011;64480;52.040;113.502;2023-08-06T10:34:23;17.92;;;9.98;;
75837;SDS011;64480;52.040;113.502;2023-08-06T10:37:34;16.77;;;9.93;;
75837;SDS011;64480;52.040;113.502;2023-08-06T10:40:49;19.27;;;11.23;;
75837;SDS011;64480;52.040;113.502;2023-08-06T10:44:17;21.05;;;9.18;;
75837;SDS011;64480;52.040;113.502;2023-08-06T10:47:27;16.90;;;10.23;;
75837;SDS011;64480;52.040;113.502;2023-08-06T10:50:35;19.33;;;10.05;;
75837;SDS011;64480;52.040;113.502;2023-08-06T10:53:45;18.15;;;9.98;;
75837;SDS011;64480;52.040;113.502;2023-08-06T10:56:49;19.17;;;10.65;;
75837;SDS011;64480;52.040;113.502;2023-08-06T10:59:56;19.25;;;11.13;;
75837;SDS011;64480;52.040;113.502;2023-08-06T11:03:18;15.55;;;10.25;;
75837;SDS011;64480;52.040;113.502;2023-08-06T11:06:23;18.00;;;10.45;;
75837;SDS011;64480;52.040;113.502;2023-08-06T11:09:40;17.42;;;10.60;;
75837;SDS011;64480;52.040;113.502;2023-08-06T11:12:45;20.30;;;10.40;;
75837;SDS011;64480;52.040;113.502;2023-08-06T11:16:03;22.33;;;14.38;;
75837;SDS011;64480;52.040;113.502;2023-08-06T11:19:22;20.05;;;10.98;;
75837;SDS011;64480;52.040;113.502;2023-08-06T11:22:30;18.15;;;10.75;;
75837;SDS011;64480;52.040;113.502;2023-08-06T11:25:47;19.50;;;11.27;;
75837;SDS011;64480;52.040;113.502;2023-08-06T11:29:01;24.17;;;12.25;;
75837;SDS011;64480;52.040;113.502;2023-08-06T11:32:18;24.70;;;10.05;;
75837;SDS011;64480;52.040;113.502;2023-08-06T11:35:27;19.58;;;11.40;;
75837;SDS011;64480;52.040;113.502;2023-08-06T11:38:35;22.10;;;10.85;;
75837;SDS011;64480;52.040;113.502;2023-08-06T11:41:41;30.90;;;17.30;;
75837;SDS011;64480;52.040;113.502;2023-08-06T11:44:48;28.33;;;17.73;;
75837;SDS011;64480;52.040;113.502;2023-08-06T11:47:54;28.38;;;18.55;;
75837;SDS011;64480;52.040;113.502;2023-08-06T11:51:15;32.45;;;19.02;;
75837;SDS011;64480;52.040;113.502;2023-08-06T11:54:31;36.00;;;20.85;;
75837;SDS011;64480;52.040;113.502;2023-08-06T11:57:53;29.05;;;18.58;;
75837;SDS011;64480;52.040;113.502;2023-08-06T12:01:00;37.45;;;22.17;;
75837;SDS011;64480;52.040;113.502;2023-08-06T12:04:07;34.63;;;20.92;;
75837;SDS011;64480;52.040;113.502;2023-08-06T12:07:18;30.27;;;20.60;;
75837;SDS011;64480;52.040;113.502;2023-08-06T12:10:24;32.38;;;19.92;;
75837;SDS011;64480;52.040;113.502;2023-08-06T12:13:44;36.95;;;22.20;;
75837;SDS011;64480;52.040;113.502;2023-08-06T12:17:03;34.00;;;21.48;;
75837;SDS011;64480;52.040;113.502;2023-08-06T12:20:10;33.72;;;22.08;;
75837;SDS011;64480;52.040;113.502;2023-08-06T12:23:19;41.72;;;21.80;;
75837;SDS011;64480;52.040;113.502;2023-08-06T12:26:26;35.35;;;22.00;;
75837;SDS011;64480;52.040;113.502;2023-08-06T12:29:30;34.90;;;23.13;;
75837;SDS011;64480;52.040;113.502;2023-08-06T12:32:48;40.35;;;23.92;;
75837;SDS011;64480;52.040;113.502;2023-08-06T12:35:57;35.25;;;23.30;;
75837;SDS011;64480;52.040;113.502;2023-08-06T12:39:02;44.92;;;25.27;;
75837;SDS011;64480;52.040;113.502;2023-08-06T12:42:07;38.30;;;24.65;;
75837;SDS011;64480;52.040;113.502;2023-08-06T12:45:28;34.42;;;22.35;;
75837;SDS011;64480;52.040;113.502;2023-08-06T12:48:39;42.10;;;23.58;;
75837;SDS011;64480;52.040;113.502;2023-08-06T12:51:44;36.58;;;23.40;;
75837;SDS011;64480;52.040;113.502;2023-08-06T12:54:48;38.53;;;24.95;;
75837;SDS011;64480;52.040;113.502;2023-08-06T12:57:53;43.72;;;25.27;;
75837;SDS011;64480;52.040;113.502;2023-08-06T13:01:00;38.88;;;23.90;;
75837;SDS011;64480;52.040;113.502;2023-08-06T13:04:07;37.15;;;22.95;;
75837;SDS011;64480;52.040;113.502;2023-08-06T13:07:25;35.00;;;20.67;;
75837;SDS011;64480;52.040;113.502;2023-08-06T13:10:29;27.35;;;16.90;;
75837;SDS011;64480;52.040;113.502;2023-08-06T13:13:35;30.65;;;17.05;;
75837;SDS011;64480;52.040;113.502;2023-08-06T13:16:44;42.28;;;18.70;;
75837;SDS011;64480;52.040;113.502;2023-08-06T13:19:50;27.92;;;17.90;;
75837;SDS011;64480;52.040;113.502;2023-08-06T13:22:55;30.00;;;20.30;;
75837;SDS011;64480;52.040;113.502;2023-08-06T13:25:59;29.45;;;19.73;;
75837;SDS011;64480;52.040;113.502;2023-08-06T13:29:04;31.45;;;17.27;;
75837;SDS011;64480;52.040;113.502;2023-08-06T13:32:14;51.50;;;17.45;;
75837;SDS011;64480;52.040;113.502;2023-08-06T13:35:20;25.02;;;12.38;;
75837;SDS011;64480;52.040;113.502;2023-08-06T13:38:42;22.52;;;11.68;;
75837;SDS011;64480;52.040;113.502;2023-08-06T13:41:46;17.67;;;12.23;;
75837;SDS011;64480;52.040;113.502;2023-08-06T13:44:49;18.73;;;11.57;;
75837;SDS011;64480;52.040;113.502;2023-08-06T13:47:55;22.13;;;13.73;;
75837;SDS011;64480;52.040;113.502;2023-08-06T13:50:58;25.00;;;15.10;;
75837;SDS011;64480;52.040;113.502;2023-08-06T13:54:20;21.85;;;14.25;;
75837;SDS011;64480;52.040;113.502;2023-08-06T13:57:38;27.95;;;13.90;;
75837;SDS011;64480;52.040;113.502;2023-08-06T14:00:44;28.40;;;14.40;;
75837;SDS011;64480;52.040;113.502;2023-08-06T14:03:49;25.65;;;15.93;;
75837;SDS011;64480;52.040;113.502;2023-08-06T14:06:56;25.02;;;15.75;;
75837;SDS011;64480;52.040;113.502;2023-08-06T14:10:01;22.15;;;14.38;;
75837;SDS011;64480;52.040;113.502;2023-08-06T14:13:10;26.23;;;17.17;;
75837;SDS011;64480;52.040;113.502;2023-08-06T14:16:18;32.03;;;18.05;;
75837;SDS011;64480;52.040;113.502;2023-08-06T14:19:23;36.13;;;22.88;;
75837;SDS011;64480;52.040;113.502;2023-08-06T14:22:29;36.47;;;23.63;;
75837;SDS011;64480;52.040;113.502;2023-08-06T14:28:52;27.23;;;16.27;;
75837;SDS011;64480;52.040;113.502;2023-08-06T14:31:58;22.42;;;12.60;;
75837;SDS011;64480;52.040;113.502;2023-08-06T14:35:03;13.13;;;9.90;;
75837;SDS011;64480;52.040;113.502;2023-08-06T14:38:08;14.68;;;10.00;;
75837;SDS011;64480;52.040;113.502;2023-08-06T14:41:13;15.10;;;10.68;;
75837;SDS011;64480;52.040;113.502;2023-08-06T14:44:17;17.50;;;10.50;;
75837;SDS011;64480;52.040;113.502;2023-08-06T14:47:23;27.63;;;10.90;;
75837;SDS011;64480;52.040;113.502;2023-08-06T14:50:32;16.17;;;10.70;;
75837;SDS011;64480;52.040;113.502;2023-08-06T14:53:39;18.88;;;10.82;;
75837;SDS011;64480;52.040;113.502;2023-08-06T14:56:45;18.20;;;12.15;;
75837;SDS011;64480;52.040;113.502;2023-08-06T14:59:51;15.90;;;11.80;;
75837;SDS011;64480;52.040;113.502;2023-08-06T15:03:00;19.15;;;10.52;;
75837;SDS011;64480;52.040;113.502;2023-08-06T15:06:05;17.90;;;10.40;;
75837;SDS011;64480;52.040;113.502;2023-08-06T15:09:11;19.20;;;10.30;;
75837;SDS011;64480;52.040;113.502;2023-08-06T15:12:16;15.05;;;9.18;;
75837;SDS011;64480;52.040;113.502;2023-08-06T15:15:21;14.30;;;10.05;;
75837;SDS011;64480;52.040;113.502;2023-08-06T15:18:27;16.67;;;9.95;;
75837;SDS011;64480;52.040;113.502;2023-08-06T15:21:33;19.55;;;11.48;;
75837;SDS011;64480;52.040;113.502;2023-08-06T15:24:50;17.20;;;10.82;;
75837;SDS011;64480;52.040;113.502;2023-08-06T15:27:55;18.95;;;11.23;;
75837;SDS011;64480;52.040;113.502;2023-08-06T15:31:02;17.80;;;11.40;;
75837;SDS011;64480;52.040;113.502;2023-08-06T15:34:15;19.05;;;11.05;;
75837;SDS011;64480;52.040;113.502;2023-08-06T15:37:22;19.40;;;10.48;;
75837;SDS011;64480;52.040;113.502;2023-08-06T15:40:26;15.90;;;10.48;;
75837;SDS011;64480;52.040;113.502;2023-08-06T15:43:31;14.38;;;9.23;;
75837;SDS011;64480;52.040;113.502;2023-08-06T15:46:37;17.63;;;10.23;;
75837;SDS011;64480;52.040;113.502;2023-08-06T15:49:43;15.23;;;9.70;;
75837;SDS011;64480;52.040;113.502;2023-08-06T15:52:47;15.98;;;9.93;;
75837;SDS011;64480;52.040;113.502;2023-08-06T15:55:52;15.68;;;10.27;;
75837;SDS011;64480;52.040;113.502;2023-08-06T15:58:57;19.05;;;9.32;;
75837;SDS011;64480;52.040;113.502;2023-08-06T16:02:02;17.58;;;11.18;;
75837;SDS011;64480;52.040;113.502;2023-08-06T16:05:07;17.70;;;10.13;;
75837;SDS011;64480;52.040;113.502;2023-08-06T16:08:12;12.98;;;9.10;;
75837;SDS011;64480;52.040;113.502;2023-08-06T16:11:18;16.38;;;8.90;;
75837;SDS011;64480;52.040;113.502;2023-08-06T16:14:21;14.00;;;9.27;;
75837;SDS011;64480;52.040;113.502;2023-08-06T16:17:27;15.05;;;10.30;;
75837;SDS011;64480;52.040;113.502;2023-08-06T16:20:44;12.35;;;8.95;;
75837;SDS011;64480;52.040;113.502;2023-08-06T16:23:49;15.65;;;9.07;;
75837;SDS011;64480;52.040;113.502;2023-08-06T16:26:53;17.38;;;10.20;;
75837;SDS011;64480;52.040;113.502;2023-08-06T16:30:02;17.48;;;10.55;;
75837;SDS011;64480;52.040;113.502;2023-08-06T16:33:09;21.38;;;12.95;;
75837;SDS011;64480;52.040;113.502;2023-08-06T16:36:14;22.30;;;12.88;;
75837;SDS011;64480;52.040;113.502;2023-08-06T16:39:18;23.00;;;13.20;;
75837;SDS011;64480;52.040;113.502;2023-08-06T16:45:29;22.15;;;13.48;;
75837;SDS011;64480;52.040;113.502;2023-08-06T16:48:38;20.38;;;13.60;;
75837;SDS011;64480;52.040;113.502;2023-08-06T16:51:43;27.15;;;13.20;;
75837;SDS011;64480;52.040;113.502;2023-08-06T16:54:50;24.48;;;13.73;;
75837;SDS011;64480;52.040;113.502;2023-08-06T16:57:55;18.77;;;12.07;;
75837;SDS011;64480;52.040;113.502;2023-08-06T17:01:01;19.75;;;13.63;;
75837;SDS011;64480;52.040;113.502;2023-08-06T17:04:09;21.65;;;14.27;;
75837;SDS011;64480;52.040;113.502;2023-08-06T17:10:20;21.48;;;13.90;;
75837;SDS011;64480;52.040;113.502;2023-08-06T17:13:39;25.73;;;14.30;;
75837;SDS011;64480;52.040;113.502;2023-08-06T17:16:51;19.80;;;12.98;;
75837;SDS011;64480;52.040;113.502;2023-08-06T17:23:03;19.42;;;12.25;;
75837;SDS011;64480;52.040;113.502;2023-08-06T17:26:09;16.20;;;11.65;;
75837;SDS011;64480;52.040;113.502;2023-08-06T17:29:14;22.20;;;12.25;;
75837;SDS011;64480;52.040;113.502;2023-08-06T17:32:18;26.63;;;12.05;;
75837;SDS011;64480;52.040;113.502;2023-08-06T17:35:23;19.17;;;12.60;;
75837;SDS011;64480;52.040;113.502;2023-08-06T17:38:53;21.52;;;13.57;;
75837;SDS011;64480;52.040;113.502;2023-08-06T17:41:57;25.83;;;15.00;;
75837;SDS011;64480;52.040;113.502;2023-08-06T17:45:01;26.05;;;15.95;;
75837;SDS011;64480;52.040;113.502;2023-08-06T17:48:05;28.30;;;15.43;;
75837;SDS011;64480;52.040;113.502;2023-08-06T17:51:11;26.85;;;17.75;;
75837;SDS011;64480;52.040;113.502;2023-08-06T17:54:15;24.77;;;17.35;;
75837;SDS011;64480;52.040;113.502;2023-08-06T17:57:21;20.23;;;13.88;;
75837;SDS011;64480;52.040;113.502;2023-08-06T18:00:26;21.08;;;12.63;;
75837;SDS011;64480;52.040;113.502;2023-08-06T18:03:30;18.05;;;11.45;;
75837;SDS011;64480;52.040;113.502;2023-08-06T18:06:33;15.95;;;11.15;;
75837;SDS011;64480;52.040;113.502;2023-08-06T18:09:39;14.00;;;9.75;;
75837;SDS011;64480;52.040;113.502;2023-08-06T18:12:44;12.77;;;9.05;;
75837;SDS011;64480;52.040;113.502;2023-08-06T18:15:49;14.77;;;8.32;;
75837;SDS011;64480;52.040;113.502;2023-08-06T18:18:56;17.48;;;9.45;;
75837;SDS011;64480;52.040;113.502;2023-08-06T18:22:03;9.85;;;7.38;;
75837;SDS011;64480;52.040;113.502;2023-08-06T18:25:07;11.80;;;7.50;;
75837;SDS011;64480;52.040;113.502;2023-08-06T18:28:12;11.85;;;7.65;;
75837;SDS011;64480;52.040;113.502;2023-08-06T18:34:24;10.43;;;7.40;;
75837;SDS011;64480;52.040;113.502;2023-08-06T18:37:28;10.63;;;7.13;;
75837;SDS011;64480;52.040;113.502;2023-08-06T18:40:33;12.52;;;7.22;;
75837;SDS011;64480;52.040;113.502;2023-08-06T18:43:37;9.55;;;7.43;;
75837;SDS011;64480;52.040;113.502;2023-08-06T18:46:43;10.10;;;7.45;;
75837;SDS011;64480;52.040;113.502;2023-08-06T18:49:47;11.05;;;7.65;;
75837;SDS011;64480;52.040;113.502;2023-08-06T18:52:52;10.82;;;7.15;;
75837;SDS011;64480;52.040;113.502;2023-08-06T18:55:56;11.10;;;7.78;;
75837;SDS011;64480;52.040;113.502;2023-08-06T18:59:00;11.10;;;6.97;;
75837;SDS011;64480;52.040;113.502;2023-08-06T19:02:03;11.10;;;6.88;;